createdAt,value
2018-12-08T00:00:40.681Z,-1.54
2018-12-08T00:03:10.177Z,-1.22
2018-12-08T00:05:39.466Z,-1.21
2018-12-08T00:08:09.043Z,-1.31
2018-12-08T00:10:39.893Z,-1.23
2018-12-08T00:13:09.602Z,-1.10
2018-12-08T00:15:39.117Z,-1.14
2018-12-08T00:18:08.504Z,-1.37
2018-12-08T00:20:37.996Z,-1.24
2018-12-08T00:23:07.892Z,-1.09
2018-12-08T00:25:37.496Z,-1.25
2018-12-08T00:28:06.935Z,-1.02
2018-12-08T00:30:47.319Z,-1.01
2018-12-08T00:33:16.903Z,-0.97
2018-12-08T00:35:46.426Z,-1.20
2018-12-08T00:38:16.062Z,-0.75
2018-12-08T00:40:45.763Z,-0.93
2018-12-08T00:43:15.271Z,-1.15
2018-12-08T00:45:44.849Z,-0.67
2018-12-08T00:48:14.187Z,-0.87
2018-12-08T00:50:43.659Z,-0.61
2018-12-08T00:53:13.320Z,-0.62
2018-12-08T00:55:42.771Z,-0.79
2018-12-08T00:58:12.202Z,-0.83
2018-12-08T01:00:41.533Z,-0.87
2018-12-08T01:03:11.160Z,-0.83
2018-12-08T01:05:40.964Z,-0.90
2018-12-08T01:08:10.403Z,-0.76
2018-12-08T01:10:39.703Z,-0.59
2018-12-08T01:13:09.536Z,-0.86
2018-12-08T01:15:38.883Z,-0.80
2018-12-08T01:18:08.425Z,-0.87
2018-12-08T01:20:37.756Z,-1.05
2018-12-08T01:23:07.084Z,-1.22
2018-12-08T01:25:36.771Z,-0.94
2018-12-08T01:28:06.165Z,-0.90
2018-12-08T01:30:35.728Z,-0.97
2018-12-08T01:33:05.183Z,-0.63
2018-12-08T01:35:34.492Z,-0.58
2018-12-08T01:38:03.884Z,-0.68
2018-12-08T01:40:33.496Z,-0.92
2018-12-08T01:43:02.945Z,-0.92
2018-12-08T01:45:32.414Z,-1.01
2018-12-08T01:48:01.793Z,-1.00
2018-12-08T01:50:31.371Z,-1.52
2018-12-08T01:53:00.891Z,-1.20
2018-12-08T01:55:30.341Z,-1.37
2018-12-08T01:57:59.792Z,-1.81
2018-12-08T02:00:29.447Z,-1.84
2018-12-08T02:02:58.993Z,-1.73
2018-12-08T02:05:28.555Z,-1.39
2018-12-08T02:07:58.290Z,-1.31
2018-12-08T02:10:28.051Z,-1.48
2018-12-08T02:12:57.321Z,-1.37
2018-12-08T02:15:27.108Z,-1.33
2018-12-08T02:17:56.816Z,-1.28
2018-12-08T02:20:26.626Z,-1.33
2018-12-08T02:22:56.301Z,-1.41
2018-12-08T02:25:25.825Z,-1.37
2018-12-08T02:27:55.450Z,-1.14
2018-12-08T02:30:25.181Z,-1.08
2018-12-08T02:32:54.786Z,-1.20
2018-12-08T02:35:24.473Z,-1.33
2018-12-08T02:37:53.942Z,-1.17
2018-12-08T02:40:23.454Z,-1.47
2018-12-08T02:42:52.930Z,-1.33
2018-12-08T02:45:22.671Z,-1.27
2018-12-08T02:47:52.264Z,-1.33
2018-12-08T02:50:21.982Z,-1.11
2018-12-08T02:52:51.659Z,-1.42
2018-12-08T02:55:21.318Z,-1.33
2018-12-08T02:57:50.708Z,-1.49
2018-12-08T03:00:20.401Z,-1.34
2018-12-08T03:02:49.935Z,-1.49
2018-12-08T03:05:19.612Z,-1.79
2018-12-08T03:07:49.073Z,-1.58
2018-12-08T03:10:18.742Z,-1.47
2018-12-08T03:12:48.493Z,-1.54
2018-12-08T03:15:18.055Z,-1.41
2018-12-08T03:17:47.592Z,-1.48
2018-12-08T03:20:17.102Z,-1.59
2018-12-08T03:22:46.689Z,-1.48
2018-12-08T03:25:16.293Z,-1.42
2018-12-08T03:27:46.077Z,-1.66
2018-12-08T03:30:15.814Z,-1.82
2018-12-08T03:32:45.658Z,-1.94
2018-12-08T03:35:15.006Z,-1.70
2018-12-08T03:37:44.338Z,-1.61
2018-12-08T03:40:13.946Z,-1.69
2018-12-08T03:42:43.329Z,-1.58
2018-12-08T03:45:13.943Z,-1.80
2018-12-08T03:47:43.407Z,-2.02
2018-12-08T03:50:13.499Z,-1.57
2018-12-08T03:52:42.912Z,-1.89
2018-12-08T03:55:12.567Z,-1.92
2018-12-08T03:57:42.137Z,-1.76
2018-12-08T04:00:11.553Z,-1.71
2018-12-08T04:02:42.379Z,-1.50
2018-12-08T04:05:11.967Z,-1.93
2018-12-08T04:07:41.452Z,-1.56
2018-12-08T04:10:11.286Z,-1.77
2018-12-08T04:12:41.875Z,-1.63
2018-12-08T04:15:11.718Z,-1.43
2018-12-08T04:17:41.380Z,-1.56
2018-12-08T04:20:10.857Z,-1.58
2018-12-08T04:22:40.147Z,-1.53
2018-12-08T04:25:11.656Z,-1.69
2018-12-08T04:27:41.273Z,-1.66
2018-12-08T04:30:10.773Z,-1.93
2018-12-08T04:32:41.439Z,-1.71
2018-12-08T04:35:10.993Z,-1.73
2018-12-08T04:37:40.414Z,-2.04
2018-12-08T04:40:09.995Z,-1.82
2018-12-08T04:42:39.684Z,-1.69
2018-12-08T04:45:09.173Z,-2.31
2018-12-08T04:47:38.921Z,-2.12
2018-12-08T04:50:08.744Z,-2.22
2018-12-08T04:52:38.138Z,-1.89
2018-12-08T04:55:07.826Z,-1.81
2018-12-08T04:57:37.563Z,-1.88
2018-12-08T05:00:07.815Z,-1.88
2018-12-08T05:02:37.397Z,-2.39
2018-12-08T05:05:07.172Z,-2.39
2018-12-08T05:07:36.817Z,-1.86
2018-12-08T05:10:07.267Z,-1.70
2018-12-08T05:12:36.844Z,-2.07
2018-12-08T05:15:07.015Z,-2.21
2018-12-08T05:17:36.545Z,-2.05
2018-12-08T05:20:06.526Z,-2.42
2018-12-08T05:22:35.844Z,-2.37
2018-12-08T05:25:05.898Z,-2.15
2018-12-08T05:27:35.295Z,-2.55
2018-12-08T05:30:05.834Z,-2.61
2018-12-08T05:32:35.537Z,-2.35
2018-12-08T05:35:05.318Z,-2.25
2018-12-08T05:37:34.804Z,-2.38
2018-12-08T05:40:04.916Z,-2.24
2018-12-08T05:42:34.447Z,-2.12
2018-12-08T05:45:05.061Z,-2.09
2018-12-08T05:47:34.384Z,-2.30
2018-12-08T05:50:04.355Z,-2.27
2018-12-08T05:52:34.673Z,-1.98
2018-12-08T05:55:04.506Z,-2.21
2018-12-08T05:57:34.413Z,-1.97
2018-12-08T06:00:04.297Z,-2.24
2018-12-08T06:02:33.508Z,-1.99
2018-12-08T06:05:03.146Z,-1.88
2018-12-08T06:07:32.839Z,-1.44
2018-12-08T06:10:02.900Z,-1.71
2018-12-08T06:12:32.463Z,-1.63
2018-12-08T06:15:02.055Z,-1.47
2018-12-08T06:17:31.588Z,-1.47
2018-12-08T06:20:01.238Z,-1.40
2018-12-08T06:22:30.910Z,-1.21
2018-12-08T06:25:00.542Z,-1.16
2018-12-08T06:28:34.996Z,-1.16
2018-12-08T06:31:04.500Z,-0.93
2018-12-08T06:33:34.019Z,-0.93
2018-12-08T06:36:03.764Z,-0.90
2018-12-08T06:38:33.262Z,-0.71
2018-12-08T06:41:03.209Z,-0.28
2018-12-08T06:43:32.752Z,-0.38
2018-12-08T06:46:02.447Z,-0.50
2018-12-08T06:48:32.068Z,-0.30
2018-12-08T06:51:01.607Z,-0.23
2018-12-08T06:53:31.775Z,-0.32
2018-12-08T06:56:01.342Z,-0.23
2018-12-08T06:58:30.932Z,-0.21
2018-12-08T07:01:00.668Z,-0.14
2018-12-08T07:03:30.359Z,-0.16
2018-12-08T07:05:59.713Z,-0.01
2018-12-08T07:08:29.168Z,0.02
2018-12-08T07:10:58.698Z,-0.09
2018-12-08T07:13:28.242Z,-0.06
2018-12-08T07:15:57.859Z,-0.05
2018-12-08T07:18:27.484Z,0.01
2018-12-08T07:20:56.845Z,0.08
2018-12-08T07:23:26.582Z,-0.01
2018-12-08T07:25:56.110Z,0.27
2018-12-08T07:28:25.681Z,0.05
2018-12-08T07:30:55.232Z,0.45
2018-12-08T07:33:24.667Z,0.60
2018-12-08T07:35:54.160Z,1.11
2018-12-08T07:38:23.863Z,1.16
2018-12-08T07:40:53.417Z,1.46
2018-12-08T07:43:22.648Z,1.93
2018-12-08T07:45:51.948Z,2.05
2018-12-08T07:48:21.608Z,2.21
2018-12-08T07:50:51.328Z,2.34
2018-12-08T07:53:20.896Z,2.28
2018-12-08T07:55:50.731Z,2.40
2018-12-08T07:58:20.284Z,2.53
2018-12-08T08:00:49.850Z,2.46
2018-12-08T08:03:19.433Z,2.46
2018-12-08T08:05:49.087Z,2.83
2018-12-08T08:08:18.772Z,2.87
2018-12-08T08:10:48.211Z,2.87
2018-12-08T08:13:17.559Z,3.12
2018-12-08T08:15:47.614Z,3.30
2018-12-08T08:18:16.979Z,3.34
2018-12-08T08:20:46.436Z,3.32
2018-12-08T08:23:15.872Z,3.34
2018-12-08T08:25:45.342Z,3.43
2018-12-08T08:28:14.854Z,3.45
2018-12-08T08:30:44.568Z,3.34
2018-12-08T08:33:13.866Z,3.52
2018-12-08T08:35:43.488Z,3.69
2018-12-08T08:38:12.804Z,3.87
2018-12-08T08:40:42.084Z,4.04
2018-12-08T08:43:11.560Z,4.16
2018-12-08T08:45:41.123Z,4.20
2018-12-08T08:48:10.520Z,4.20
2018-12-08T08:50:40.073Z,4.30
2018-12-08T08:53:09.874Z,4.29
2018-12-08T08:55:39.613Z,4.35
2018-12-08T08:58:09.293Z,4.38
2018-12-08T09:00:38.677Z,4.51
2018-12-08T09:03:08.295Z,4.55
2018-12-08T09:05:37.811Z,4.52
2018-12-08T09:08:07.361Z,4.70
2018-12-08T09:10:36.748Z,4.89
2018-12-08T09:13:06.232Z,4.93
2018-12-08T09:15:35.555Z,5.17
2018-12-08T09:18:05.304Z,5.04
2018-12-08T09:20:34.973Z,5.31
2018-12-08T09:23:04.345Z,5.45
2018-12-08T09:25:34.003Z,5.76
2018-12-08T09:28:03.625Z,5.76
2018-12-08T09:30:33.104Z,5.70
2018-12-08T09:33:02.463Z,5.97
2018-12-08T09:35:32.183Z,5.61
2018-12-08T09:38:01.668Z,5.96
2018-12-08T09:40:31.276Z,5.91
2018-12-08T09:43:00.622Z,6.06
2018-12-08T09:45:30.000Z,6.09
2018-12-08T09:47:59.327Z,6.10
2018-12-08T09:50:29.026Z,6.06
2018-12-08T09:53:09.582Z,5.76
2018-12-08T09:55:39.317Z,5.57
2018-12-08T09:58:08.901Z,5.53
2018-12-08T10:00:38.555Z,5.48
2018-12-08T10:03:08.144Z,5.39
2018-12-08T10:05:37.691Z,5.37
2018-12-08T10:08:07.384Z,5.22
2018-12-08T10:10:38.280Z,5.21
2018-12-08T10:13:07.824Z,5.15
2018-12-08T10:15:37.398Z,5.04
2018-12-08T10:18:07.039Z,5.00
2018-12-08T10:20:36.664Z,4.93
2018-12-08T10:23:06.161Z,5.03
2018-12-08T10:25:35.652Z,4.92
2018-12-08T10:28:06.225Z,4.81
2018-12-08T10:30:35.956Z,4.77
2018-12-08T10:33:05.629Z,4.54
2018-12-08T10:35:35.615Z,4.42
2018-12-08T10:38:05.815Z,4.43
2018-12-08T10:40:35.612Z,4.50
2018-12-08T10:43:04.942Z,4.47
2018-12-08T10:45:34.346Z,4.45
2018-12-08T10:48:03.886Z,4.59
2018-12-08T10:50:33.432Z,4.60
2018-12-08T10:53:04.839Z,4.58
2018-12-08T10:55:34.466Z,4.36
2018-12-08T10:58:04.027Z,4.50
2018-12-08T11:00:38.795Z,4.40
2018-12-08T11:03:13.472Z,4.33
2018-12-08T11:05:42.795Z,4.27
2018-12-08T11:08:12.362Z,4.15
2018-12-08T11:10:41.767Z,4.05
2018-12-08T11:13:12.131Z,3.99
2018-12-08T11:15:41.482Z,4.07
2018-12-08T11:18:10.904Z,4.18
2018-12-08T11:20:40.892Z,4.23
2018-12-08T11:23:10.686Z,4.38
2018-12-08T11:25:40.080Z,4.42
2018-12-08T11:28:09.743Z,4.47
2018-12-08T11:30:39.420Z,4.50
2018-12-08T11:33:08.889Z,4.44
2018-12-08T11:35:38.448Z,4.32
2018-12-08T11:38:07.794Z,4.53
2018-12-08T11:40:37.538Z,4.60
2018-12-08T11:43:07.137Z,4.76
2018-12-08T11:45:36.555Z,4.85
2018-12-08T11:48:05.928Z,5.05
2018-12-08T11:50:35.395Z,5.06
2018-12-08T11:53:05.047Z,5.08
2018-12-08T11:55:34.690Z,5.04
2018-12-08T11:58:04.263Z,5.14
2018-12-08T12:00:33.815Z,5.09
2018-12-08T12:03:03.368Z,4.95
2018-12-08T12:05:32.740Z,4.87
2018-12-08T12:08:02.004Z,4.78
2018-12-08T12:10:31.634Z,5.06
2018-12-08T12:13:01.128Z,5.10
2018-12-08T12:15:30.527Z,5.16
2018-12-08T12:17:59.982Z,5.03
2018-12-08T12:20:29.754Z,4.99
2018-12-08T12:22:59.271Z,4.96
2018-12-08T12:25:29.169Z,4.90
2018-12-08T12:27:59.132Z,4.84
2018-12-08T12:30:28.859Z,4.86
2018-12-08T12:32:58.191Z,4.82
2018-12-08T12:35:27.728Z,4.81
2018-12-08T12:37:57.287Z,4.82
2018-12-08T12:40:26.738Z,4.88
2018-12-08T12:42:56.145Z,4.89
2018-12-08T12:45:25.495Z,4.89
2018-12-08T12:47:54.873Z,4.70
2018-12-08T12:50:24.251Z,4.85
2018-12-08T12:52:54.647Z,4.96
2018-12-08T12:55:24.077Z,5.05
2018-12-08T12:57:53.688Z,5.13
2018-12-08T13:00:23.560Z,5.04
2018-12-08T13:02:53.189Z,5.31
2018-12-08T13:05:22.407Z,5.38
2018-12-08T13:07:51.961Z,5.60
2018-12-08T13:10:21.216Z,5.41
2018-12-08T13:12:50.619Z,5.07
2018-12-08T13:15:20.251Z,5.38
2018-12-08T13:17:49.585Z,5.19
2018-12-08T13:20:18.872Z,4.86
2018-12-08T13:22:48.468Z,4.78
2018-12-08T13:25:23.534Z,4.89
2018-12-08T13:27:52.900Z,4.56
2018-12-08T13:30:22.197Z,4.39
2018-12-08T13:32:51.865Z,4.28
2018-12-08T13:35:32.276Z,4.09
2018-12-08T13:38:08.154Z,4.35
2018-12-08T13:40:37.566Z,4.66
2018-12-08T13:43:07.191Z,4.73
2018-12-08T13:45:36.737Z,4.95
2018-12-08T13:48:06.172Z,5.09
2018-12-08T13:50:36.243Z,5.18
2018-12-08T13:53:05.447Z,5.16
2018-12-08T13:55:36.032Z,4.99
2018-12-08T13:58:05.362Z,5.00
2018-12-08T14:00:35.100Z,5.06
2018-12-08T14:03:04.630Z,5.21
2018-12-08T14:05:34.308Z,5.24
2018-12-08T14:08:03.836Z,5.26
2018-12-08T14:10:33.621Z,5.19
2018-12-08T14:13:03.090Z,5.35
2018-12-08T14:15:32.754Z,5.33
2018-12-08T14:18:02.026Z,5.27
2018-12-08T14:20:33.356Z,5.23
2018-12-08T14:23:02.624Z,5.33
2018-12-08T14:25:32.002Z,5.22
2018-12-08T14:28:01.331Z,5.29
2018-12-08T14:30:30.982Z,5.32
2018-12-08T14:33:00.447Z,5.29
2018-12-08T14:35:30.075Z,5.16
2018-12-08T14:37:59.552Z,5.14
2018-12-08T14:40:29.459Z,5.10
2018-12-08T14:42:58.746Z,5.03
2018-12-08T14:45:28.568Z,4.62
2018-12-08T14:47:58.190Z,5.01
2018-12-08T14:50:27.492Z,5.00
2018-12-08T14:52:56.995Z,4.44
2018-12-08T14:55:26.500Z,4.73
2018-12-08T14:57:55.777Z,4.82
2018-12-08T15:00:25.203Z,4.77
2018-12-08T15:02:55.503Z,4.84
2018-12-08T15:05:25.066Z,4.75
2018-12-08T15:07:54.793Z,4.56
2018-12-08T15:10:24.339Z,4.49
2018-12-08T15:12:53.796Z,4.67
2018-12-08T15:15:23.448Z,4.69
2018-12-08T15:17:53.388Z,4.63
2018-12-08T15:20:22.742Z,4.75
2018-12-08T15:22:52.204Z,4.69
2018-12-08T15:25:21.891Z,4.66
2018-12-08T15:27:51.388Z,4.68
2018-12-08T15:30:21.006Z,4.47
2018-12-08T15:32:50.682Z,4.37
2018-12-08T15:35:20.424Z,4.32
2018-12-08T15:37:49.770Z,4.23
2018-12-08T15:40:19.076Z,3.90
2018-12-08T15:42:48.305Z,3.71
2018-12-08T15:45:17.773Z,3.05
2018-12-08T15:47:47.359Z,2.99
2018-12-08T15:50:17.476Z,3.43
2018-12-08T15:52:46.885Z,3.43
2018-12-08T15:55:16.263Z,3.71
2018-12-08T15:57:45.629Z,3.83
2018-12-08T16:00:15.439Z,3.76
2018-12-08T16:02:45.002Z,3.71
2018-12-08T16:05:14.767Z,3.73
2018-12-08T16:07:44.364Z,3.80
2018-12-08T16:10:14.149Z,3.74
2018-12-08T16:12:43.670Z,3.74
2018-12-08T16:15:13.243Z,3.67
2018-12-08T16:17:42.875Z,3.46
2018-12-08T16:20:13.800Z,3.63
2018-12-08T16:22:43.650Z,3.67
2018-12-08T16:25:13.155Z,3.74
2018-12-08T16:27:42.520Z,3.77
2018-12-08T16:30:11.943Z,3.80
2018-12-08T16:32:41.459Z,3.96
2018-12-08T16:35:11.196Z,3.91
2018-12-08T16:37:41.722Z,3.94
2018-12-08T16:40:11.686Z,3.74
2018-12-08T16:42:41.147Z,3.82
2018-12-08T16:45:11.116Z,3.90
2018-12-08T16:47:40.927Z,3.95
2018-12-08T16:50:11.058Z,4.13
2018-12-08T16:52:42.272Z,4.06
2018-12-08T16:55:12.047Z,3.89
2018-12-08T16:57:41.882Z,4.03
2018-12-08T17:00:11.573Z,3.74
2018-12-08T17:02:41.190Z,3.96
2018-12-08T17:05:11.280Z,4.27
2018-12-08T17:07:40.626Z,4.17
2018-12-08T17:10:10.166Z,4.04
2018-12-08T17:12:39.684Z,4.06
2018-12-08T17:15:09.310Z,4.07
2018-12-08T17:17:38.678Z,3.95
2018-12-08T17:20:10.732Z,4.19
2018-12-08T17:22:40.687Z,4.23
2018-12-08T17:25:09.972Z,4.16
2018-12-08T17:27:39.569Z,4.00
2018-12-08T17:30:09.159Z,3.95
2018-12-08T17:32:38.558Z,3.88
2018-12-08T17:35:09.018Z,3.84
2018-12-08T17:37:38.594Z,3.91
2018-12-08T17:40:09.284Z,3.90
2018-12-08T17:42:38.960Z,3.75
2018-12-08T17:45:09.115Z,3.71
2018-12-08T17:47:38.529Z,3.63
2018-12-08T17:50:08.776Z,3.58
2018-12-08T17:52:38.345Z,3.58
2018-12-08T17:55:07.958Z,3.54
2018-12-08T17:57:37.192Z,3.51
2018-12-08T18:00:07.247Z,3.65
2018-12-08T18:02:36.543Z,3.68
2018-12-08T18:05:06.702Z,3.76
2018-12-08T18:07:36.570Z,3.79
2018-12-08T18:10:07.441Z,3.76
2018-12-08T18:12:36.900Z,3.76
2018-12-08T18:15:06.381Z,3.74
2018-12-08T18:17:36.173Z,3.71
2018-12-08T18:20:06.091Z,3.90
2018-12-08T18:22:36.930Z,3.94
2018-12-08T18:25:06.299Z,3.87
2018-12-08T18:27:35.972Z,3.78
2018-12-08T18:30:07.154Z,3.82
2018-12-08T18:32:36.407Z,3.75
2018-12-08T18:35:06.162Z,3.77
2018-12-08T18:37:35.936Z,3.83
2018-12-08T18:40:05.692Z,3.80
2018-12-08T18:42:35.636Z,3.75
2018-12-08T18:45:05.367Z,3.77
2018-12-08T18:47:34.957Z,3.86
2018-12-08T18:50:05.332Z,3.72
2018-12-08T18:52:34.956Z,3.84
2018-12-08T18:55:04.603Z,3.77
2018-12-08T18:57:34.407Z,3.69
2018-12-08T19:00:04.278Z,3.65
2018-12-08T19:02:34.633Z,3.60
2018-12-08T19:05:04.496Z,3.50
2018-12-08T19:07:34.803Z,3.44
2018-12-08T19:10:04.679Z,3.46
2018-12-08T19:12:33.975Z,3.30
2018-12-08T19:15:04.204Z,3.35
2018-12-08T19:17:33.755Z,3.49
2018-12-08T19:20:03.524Z,3.44
2018-12-08T19:22:32.744Z,3.18
2018-12-08T19:25:02.336Z,2.91
2018-12-08T19:27:32.283Z,2.88
2018-12-08T19:30:01.795Z,2.64
2018-12-08T19:32:31.080Z,2.77
2018-12-08T19:35:00.888Z,2.96
2018-12-08T19:37:30.468Z,2.48
2018-12-08T19:40:00.901Z,2.70
2018-12-08T19:42:30.481Z,2.31
2018-12-08T19:44:59.911Z,2.22
2018-12-08T19:47:29.349Z,2.36
2018-12-08T19:49:59.042Z,2.27
2018-12-08T19:52:28.652Z,2.11
2018-12-08T19:54:58.372Z,1.75
2018-12-08T19:57:28.172Z,1.82
2018-12-08T19:59:57.510Z,1.74
2018-12-08T20:02:26.831Z,1.75
2018-12-08T20:04:56.439Z,1.85
2018-12-08T20:07:25.912Z,1.83
2018-12-08T20:09:55.663Z,1.70
2018-12-08T20:12:25.434Z,1.89
2018-12-08T20:14:55.065Z,1.98
2018-12-08T20:17:24.540Z,2.02
2018-12-08T20:19:54.345Z,2.02
2018-12-08T20:22:23.952Z,1.77
2018-12-08T20:24:53.599Z,1.70
2018-12-08T20:27:23.139Z,1.74
2018-12-08T20:29:52.552Z,1.61
2018-12-08T20:32:21.908Z,1.58
2018-12-08T20:34:52.642Z,1.58
2018-12-08T20:37:22.463Z,1.61
2018-12-08T20:39:52.237Z,1.74
2018-12-08T20:42:21.950Z,1.73
2018-12-08T20:44:51.664Z,1.61
2018-12-08T20:47:21.160Z,1.56
2018-12-08T20:49:51.093Z,1.80
2018-12-08T20:52:20.575Z,1.65
2018-12-08T20:54:50.187Z,1.63
2018-12-08T20:57:19.891Z,1.53
2018-12-08T20:59:49.491Z,1.50
2018-12-08T21:02:18.725Z,1.66
2018-12-08T21:04:48.385Z,1.65
2018-12-08T21:07:19.079Z,1.75
2018-12-08T21:09:48.351Z,1.71
2018-12-08T21:12:18.147Z,1.74
2018-12-08T21:14:47.867Z,1.91
2018-12-08T21:17:17.476Z,2.19
2018-12-08T21:19:47.184Z,2.19
2018-12-08T21:22:16.996Z,2.37
2018-12-08T21:24:46.631Z,2.53
2018-12-08T21:27:16.258Z,2.41
2018-12-08T21:29:45.634Z,2.35
2018-12-08T21:32:14.863Z,2.21
2018-12-08T21:34:45.469Z,2.45
2018-12-08T21:37:15.061Z,2.47
2018-12-08T21:39:44.584Z,2.13
2018-12-08T21:42:14.037Z,2.16
2018-12-08T21:44:43.336Z,2.15
2018-12-08T21:47:12.909Z,2.44
2018-12-08T21:49:42.579Z,2.72
2018-12-08T21:52:12.130Z,2.86
2018-12-08T21:54:41.812Z,2.82
2018-12-08T21:57:11.509Z,3.09
2018-12-08T21:59:40.956Z,3.18
2018-12-08T22:02:10.730Z,3.23
2018-12-08T22:04:40.276Z,3.39
2018-12-08T22:07:09.831Z,3.45
2018-12-08T22:09:39.340Z,3.51
2018-12-08T22:12:09.000Z,3.56
2018-12-08T22:17:26.836Z,3.39
2018-12-08T22:19:56.425Z,3.56
2018-12-08T22:22:26.232Z,3.51
2018-12-08T22:24:55.908Z,3.51
2018-12-08T22:27:25.225Z,3.48
2018-12-08T22:29:54.552Z,3.53
2018-12-08T22:32:23.944Z,3.64
2018-12-08T22:34:53.452Z,3.67
2018-12-08T22:37:22.750Z,3.55
2018-12-08T22:39:52.344Z,3.57
2018-12-08T22:42:21.809Z,3.74
2018-12-08T22:44:51.384Z,3.69
2018-12-08T22:47:20.690Z,3.69
2018-12-08T22:49:50.193Z,3.77
2018-12-08T22:52:19.913Z,3.76
2018-12-08T22:54:49.679Z,3.74
2018-12-08T22:57:19.293Z,3.66
2018-12-08T22:59:48.668Z,3.65
2018-12-08T23:02:18.454Z,3.29
2018-12-08T23:04:48.060Z,3.71
2018-12-08T23:07:17.696Z,3.77
2018-12-08T23:09:47.160Z,3.72
2018-12-08T23:12:16.687Z,3.64
2018-12-08T23:14:46.336Z,3.53
2018-12-08T23:17:15.749Z,3.50
2018-12-08T23:19:45.517Z,3.50
2018-12-08T23:22:15.097Z,3.56
2018-12-08T23:24:44.798Z,3.52
2018-12-08T23:27:14.303Z,3.48
2018-12-08T23:29:43.603Z,3.51
2018-12-08T23:32:13.055Z,3.69
2018-12-08T23:34:42.723Z,3.73
2018-12-08T23:37:12.355Z,3.68
2018-12-08T23:39:41.980Z,3.64
2018-12-08T23:42:12.500Z,3.55
2018-12-08T23:44:42.016Z,3.48
2018-12-08T23:47:11.688Z,3.51
2018-12-08T23:49:41.321Z,3.43
2018-12-08T23:52:11.071Z,3.36
2018-12-08T23:54:40.793Z,3.49
2018-12-08T23:57:10.292Z,3.49
2018-12-08T23:59:39.658Z,3.48
